createdAt,value
2023-02-11T00:00:03.555Z,100.00
2023-02-11T00:02:33.154Z,100.00
2023-02-11T00:05:02.764Z,100.00
2023-02-11T00:07:35.851Z,100.00
2023-02-11T00:10:06.403Z,100.00
2023-02-11T00:12:34.864Z,100.00
2023-02-11T00:15:03.498Z,100.00
2023-02-11T00:17:33.251Z,100.00
2023-02-11T00:20:01.482Z,100.00
2023-02-11T00:22:29.826Z,100.00
2023-02-11T00:24:59.223Z,100.00
2023-02-11T00:27:27.569Z,100.00
2023-02-11T00:29:56.159Z,100.00
2023-02-11T00:32:24.230Z,100.00
2023-02-11T00:34:53.320Z,100.00
2023-02-11T00:37:21.554Z,100.00
2023-02-11T00:39:50.170Z,100.00
2023-02-11T00:42:19.862Z,100.00
2023-02-11T00:44:48.064Z,100.00
2023-02-11T00:47:18.234Z,100.00
2023-02-11T00:49:46.905Z,100.00
2023-02-11T00:52:14.991Z,100.00
2023-02-11T00:54:43.879Z,100.00
2023-02-11T00:57:12.233Z,100.00
2023-02-11T00:59:44.173Z,100.00
2023-02-11T01:02:12.546Z,100.00
2023-02-11T01:04:43.213Z,100.00
2023-02-11T01:07:11.336Z,100.00
2023-02-11T01:09:40.002Z,100.00
2023-02-11T01:12:08.158Z,100.00
2023-02-11T01:14:36.281Z,100.00
2023-02-11T01:17:07.497Z,100.00
2023-02-11T01:19:35.604Z,100.00
2023-02-11T01:22:03.769Z,100.00
2023-02-11T01:24:32.177Z,100.00
2023-02-11T01:27:01.041Z,100.00
2023-02-11T01:29:29.636Z,100.00
2023-02-11T01:31:57.970Z,100.00
2023-02-11T01:34:28.566Z,100.00
2023-02-11T01:36:59.869Z,100.00
2023-02-11T01:39:33.834Z,100.00
2023-02-11T01:42:02.577Z,100.00
2023-02-11T01:44:34.650Z,100.00
2023-02-11T01:47:04.924Z,100.00
2023-02-11T01:49:37.387Z,100.00
2023-02-11T01:52:10.809Z,100.00
2023-02-11T01:55:00.450Z,100.00
2023-02-11T01:57:33.405Z,100.00
2023-02-11T02:00:09.108Z,100.00
2023-02-11T02:02:54.324Z,100.00
2023-02-11T02:05:33.728Z,100.00
2023-02-11T02:08:11.073Z,100.00
2023-02-11T02:10:43.321Z,100.00
2023-02-11T02:13:11.994Z,100.00
2023-02-11T02:15:43.036Z,100.00
2023-02-11T02:18:28.970Z,100.00
2023-02-11T02:21:31.807Z,100.00
2023-02-11T02:24:34.239Z,100.00
2023-02-11T02:27:42.290Z,100.00
2023-02-11T02:30:33.420Z,100.00
2023-02-11T02:33:28.284Z,100.00
2023-02-11T02:36:10.646Z,100.00
2023-02-11T02:38:41.719Z,100.00
2023-02-11T02:41:13.036Z,100.00
2023-02-11T02:43:43.689Z,100.00
2023-02-11T02:46:14.630Z,100.00
2023-02-11T02:48:45.034Z,100.00
2023-02-11T02:51:28.019Z,100.00
2023-02-11T02:54:05.309Z,100.00
2023-02-11T02:56:44.663Z,100.00
2023-02-11T02:59:26.206Z,100.00
2023-02-11T03:02:06.329Z,100.00
2023-02-11T03:04:41.023Z,100.00
2023-02-11T03:07:18.121Z,100.00
2023-02-11T03:09:50.842Z,100.00
2023-02-11T03:12:19.919Z,100.00
2023-02-11T03:14:50.347Z,100.00
2023-02-11T03:17:20.470Z,100.00
2023-02-11T03:19:52.861Z,100.00
2023-02-11T03:22:24.021Z,100.00
2023-02-11T03:24:52.809Z,100.00
2023-02-11T03:27:28.559Z,100.00
2023-02-11T03:30:02.191Z,100.00
2023-02-11T03:32:35.090Z,100.00
2023-02-11T03:35:11.533Z,100.00
2023-02-11T03:37:43.634Z,100.00
2023-02-11T03:41:37.647Z,100.00
2023-02-11T03:44:07.786Z,100.00
2023-02-11T03:46:40.372Z,100.00
2023-02-11T03:49:12.240Z,100.00
2023-02-11T03:51:42.996Z,100.00
2023-02-11T03:54:15.830Z,100.00
2023-02-11T03:56:50.896Z,100.00
2023-02-11T03:59:19.147Z,100.00
2023-02-11T04:01:47.294Z,100.00
2023-02-11T04:04:15.554Z,100.00
2023-02-11T04:06:43.928Z,100.00
2023-02-11T04:09:12.315Z,100.00
2023-02-11T04:11:40.463Z,100.00
2023-02-11T04:14:10.052Z,100.00
2023-02-11T04:16:38.330Z,100.00
2023-02-11T04:19:06.512Z,100.00
2023-02-11T04:21:36.843Z,100.00
2023-02-11T04:24:07.446Z,100.00
2023-02-11T04:26:35.674Z,100.00
2023-02-11T04:29:03.747Z,100.00
2023-02-11T04:31:33.378Z,100.00
2023-02-11T04:34:01.755Z,100.00
2023-02-11T04:36:29.790Z,100.00
2023-02-11T04:38:58.083Z,100.00
2023-02-11T04:41:28.352Z,100.00
2023-02-11T04:43:56.521Z,100.00
2023-02-11T04:46:27.974Z,100.00
2023-02-11T04:48:59.797Z,100.00
2023-02-11T04:51:27.880Z,100.00
2023-02-11T04:53:56.017Z,100.00
2023-02-11T04:56:24.494Z,100.00
2023-02-11T04:58:52.716Z,100.00
2023-02-11T05:01:21.128Z,100.00
2023-02-11T05:03:49.675Z,100.00
2023-02-11T05:06:19.463Z,100.00
2023-02-11T05:08:47.528Z,100.00
2023-02-11T05:11:17.816Z,100.00
2023-02-11T05:13:46.372Z,100.00
2023-02-11T05:16:17.527Z,100.00
2023-02-11T05:18:46.619Z,100.00
2023-02-11T05:21:17.155Z,100.00
2023-02-11T05:23:49.350Z,100.00
2023-02-11T05:26:18.134Z,100.00
2023-02-11T05:28:46.330Z,100.00
2023-02-11T05:31:15.055Z,100.00
2023-02-11T05:33:43.833Z,100.00
2023-02-11T05:36:14.591Z,100.00
2023-02-11T05:38:43.514Z,100.00
2023-02-11T05:41:13.517Z,100.00
2023-02-11T05:43:41.556Z,100.00
2023-02-11T05:46:09.754Z,100.00
2023-02-11T05:48:37.981Z,100.00
2023-02-11T05:51:06.331Z,100.00
2023-02-11T05:53:34.462Z,100.00
2023-02-11T05:56:03.041Z,100.00
2023-02-11T05:58:33.970Z,100.00
2023-02-11T06:01:05.515Z,100.00
2023-02-11T06:03:33.677Z,100.00
2023-02-11T06:06:01.633Z,100.00
2023-02-11T06:08:29.977Z,100.00
2023-02-11T06:11:00.158Z,100.00
2023-02-11T06:13:31.956Z,100.00
2023-02-11T06:16:01.270Z,100.00
2023-02-11T06:18:33.677Z,100.00
2023-02-11T06:21:01.724Z,100.00
2023-02-11T06:23:31.900Z,100.00
2023-02-11T06:26:04.159Z,100.00
2023-02-11T06:28:33.859Z,100.00
2023-02-11T06:31:06.798Z,100.00
2023-02-11T06:33:35.390Z,100.00
2023-02-11T06:36:13.029Z,100.00
2023-02-11T06:38:41.133Z,100.00
2023-02-11T06:41:11.016Z,100.00
2023-02-11T06:43:43.703Z,100.00
2023-02-11T06:46:11.925Z,100.00
2023-02-11T06:48:39.968Z,100.00
2023-02-11T06:51:10.184Z,100.00
2023-02-11T06:53:42.430Z,100.00
2023-02-11T06:56:13.069Z,100.00
2023-02-11T06:58:41.362Z,100.00
2023-02-11T07:01:13.188Z,100.00
2023-02-11T07:03:46.341Z,100.00
2023-02-11T07:06:18.800Z,100.00
2023-02-11T07:08:49.743Z,100.00
2023-02-11T07:11:20.681Z,100.00
2023-02-11T07:13:48.930Z,100.00
2023-02-11T07:16:19.676Z,100.00
2023-02-11T07:18:49.223Z,100.00
2023-02-11T07:21:20.452Z,100.00
2023-02-11T07:23:51.115Z,100.00
2023-02-11T07:26:23.101Z,100.00
2023-02-11T07:28:52.212Z,100.00
2023-02-11T07:31:24.165Z,100.00
2023-02-11T07:33:56.462Z,100.00
2023-02-11T07:36:25.030Z,100.00
2023-02-11T07:38:55.567Z,100.00
2023-02-11T07:41:25.177Z,100.00
2023-02-11T07:43:53.722Z,100.00
2023-02-11T07:46:25.507Z,100.00
2023-02-11T07:48:53.668Z,100.00
2023-02-11T07:51:23.595Z,100.00
2023-02-11T07:53:55.426Z,100.00
2023-02-11T07:56:25.146Z,100.00
2023-02-11T07:58:53.845Z,100.00
2023-02-11T08:01:28.264Z,100.00
2023-02-11T08:03:57.040Z,100.00
2023-02-11T08:06:29.506Z,100.00
2023-02-11T08:08:58.071Z,100.00
2023-02-11T08:11:28.230Z,100.00
2023-02-11T08:13:59.437Z,100.00
2023-02-11T08:16:32.961Z,100.00
2023-02-11T08:19:03.468Z,100.00
2023-02-11T08:21:31.555Z,100.00
2023-02-11T08:24:00.242Z,100.00
2023-02-11T08:26:31.751Z,100.00
2023-02-11T08:29:04.829Z,97.92
2023-02-11T08:31:39.553Z,96.32
2023-02-11T08:34:11.613Z,97.19
2023-02-11T08:36:42.105Z,96.68
2023-02-11T08:42:36.671Z,95.14
2023-02-11T08:45:05.226Z,92.24
2023-02-11T08:47:33.767Z,88.60
2023-02-11T08:50:01.845Z,85.98
2023-02-11T08:52:30.212Z,86.82
2023-02-11T08:54:58.843Z,84.79
2023-02-11T08:57:29.578Z,84.65
2023-02-11T08:59:59.537Z,83.13
2023-02-11T09:02:30.434Z,80.87
2023-02-11T09:04:58.553Z,80.18
2023-02-11T09:07:26.904Z,78.94
2023-02-11T09:09:55.057Z,79.26
2023-02-11T09:12:23.346Z,76.19
2023-02-11T09:14:53.786Z,78.06
2023-02-11T09:17:23.430Z,76.19
2023-02-11T09:19:51.501Z,76.50
2023-02-11T09:22:19.862Z,75.47
2023-02-11T09:24:48.233Z,77.09
2023-02-11T09:27:16.356Z,77.58
2023-02-11T09:29:44.725Z,79.78
2023-02-11T09:32:15.707Z,81.45
2023-02-11T09:34:45.911Z,82.65
2023-02-11T09:37:16.236Z,83.81
2023-02-11T09:39:46.214Z,83.09
2023-02-11T09:42:44.926Z,86.07
2023-02-11T09:45:18.862Z,88.49
2023-02-11T09:47:53.690Z,85.93
2023-02-11T09:50:29.274Z,84.97
2023-02-11T09:53:02.973Z,79.77
2023-02-11T09:55:38.239Z,81.62
2023-02-11T09:58:12.847Z,80.44
2023-02-11T10:00:46.341Z,80.08
2023-02-11T10:03:36.145Z,77.55
2023-02-11T10:06:30.159Z,76.57
2023-02-11T10:09:03.445Z,77.13
2023-02-11T10:11:43.017Z,76.07
2023-02-11T10:14:26.936Z,76.11
2023-02-11T10:17:05.745Z,75.69
2023-02-11T10:19:47.261Z,77.06
2023-02-11T10:22:23.731Z,77.53
2023-02-11T10:24:55.104Z,77.45
2023-02-11T10:27:32.050Z,75.50
2023-02-11T10:30:03.769Z,76.44
2023-02-11T10:32:40.697Z,75.74
2023-02-11T10:35:17.936Z,77.23
2023-02-11T10:37:47.768Z,78.22
2023-02-11T10:40:18.081Z,77.26
2023-02-11T10:42:51.217Z,76.78
2023-02-11T10:45:26.361Z,72.60
2023-02-11T10:47:55.467Z,70.26
2023-02-11T10:50:27.043Z,68.24
2023-02-11T10:53:13.859Z,68.82
2023-02-11T10:55:52.324Z,68.35
2023-02-11T10:58:26.577Z,67.99
2023-02-11T11:00:56.738Z,64.80
2023-02-11T11:03:26.511Z,63.15
2023-02-11T11:05:58.568Z,63.13
2023-02-11T11:08:43.337Z,60.74
2023-02-11T11:11:13.700Z,63.23
2023-02-11T11:13:43.782Z,58.61
2023-02-11T11:16:24.484Z,56.57
2023-02-11T11:18:54.990Z,57.41
2023-02-11T11:21:27.441Z,56.83
2023-02-11T11:24:01.596Z,61.10
2023-02-11T11:26:40.828Z,63.57
2023-02-11T11:29:13.014Z,66.38
2023-02-11T11:31:56.881Z,67.52
2023-02-11T11:34:31.148Z,66.19
2023-02-11T11:37:14.180Z,61.45
2023-02-11T11:39:53.882Z,62.06
2023-02-11T11:42:30.406Z,64.52
2023-02-11T11:45:00.436Z,66.23
2023-02-11T11:47:36.047Z,68.51
2023-02-11T11:50:21.417Z,72.15
2023-02-11T11:52:55.804Z,72.70
2023-02-11T11:55:28.267Z,73.70
2023-02-11T11:57:57.099Z,74.89
2023-02-11T12:00:45.090Z,74.18
2023-02-11T12:03:54.837Z,76.07
2023-02-11T12:06:34.881Z,76.50
2023-02-11T12:09:16.108Z,78.21
2023-02-11T12:12:03.863Z,78.33
2023-02-11T12:14:41.056Z,79.53
2023-02-11T12:17:22.459Z,79.52
2023-02-11T12:20:18.058Z,78.05
2023-02-11T12:23:00.058Z,77.35
2023-02-11T12:25:30.872Z,76.80
2023-02-11T12:28:14.109Z,77.53
2023-02-11T12:31:19.093Z,78.67
2023-02-11T12:34:02.009Z,78.47
2023-02-11T12:36:46.799Z,79.21
2023-02-11T12:39:30.195Z,80.13
2023-02-11T12:43:14.897Z,80.89
2023-02-11T12:46:15.815Z,83.03
2023-02-11T12:49:13.004Z,83.16
2023-02-11T12:52:07.937Z,84.89
2023-02-11T12:54:44.061Z,85.71
2023-02-11T12:57:19.541Z,85.07
2023-02-11T12:59:56.613Z,85.44
2023-02-11T13:02:40.729Z,85.88
2023-02-11T13:05:23.439Z,86.10
2023-02-11T13:07:55.201Z,87.28
2023-02-11T13:10:29.461Z,87.18
2023-02-11T13:13:17.917Z,85.92
2023-02-11T13:15:51.298Z,86.92
2023-02-11T13:18:33.414Z,87.24
2023-02-11T13:21:19.943Z,89.26
2023-02-11T13:23:57.883Z,88.32
2023-02-11T13:26:35.176Z,88.57
2023-02-11T13:29:19.754Z,90.19
2023-02-11T13:31:55.327Z,91.23
2023-02-11T13:34:56.183Z,91.71
2023-02-11T13:37:27.897Z,94.41
2023-02-11T13:40:01.047Z,93.63
2023-02-11T13:43:37.740Z,95.39
2023-02-11T13:46:11.882Z,94.86
2023-02-11T13:48:47.361Z,95.94
2023-02-11T13:51:17.732Z,96.90
2023-02-11T13:53:51.502Z,98.06
2023-02-11T13:56:30.233Z,98.77
2023-02-11T13:59:02.311Z,99.92
2023-02-11T14:02:16.348Z,99.43
2023-02-11T14:05:39.577Z,100.00
2023-02-11T14:08:40.801Z,100.00
2023-02-11T14:11:48.522Z,100.00
2023-02-11T14:14:26.229Z,100.00
2023-02-11T14:17:31.134Z,100.00
2023-02-11T14:20:00.420Z,99.43
2023-02-11T14:22:32.775Z,99.48
2023-02-11T14:25:02.285Z,99.55
2023-02-11T14:27:42.085Z,98.75
2023-02-11T14:30:44.390Z,98.03
2023-02-11T14:33:27.407Z,98.54
2023-02-11T14:36:09.071Z,99.61
2023-02-11T14:38:49.551Z,99.30
2023-02-11T14:41:24.228Z,99.57
2023-02-11T14:43:55.247Z,100.00
2023-02-11T14:46:27.726Z,100.00
2023-02-11T14:48:59.937Z,100.00
2023-02-11T14:51:31.311Z,100.00
2023-02-11T14:54:04.586Z,100.00
2023-02-11T14:56:34.496Z,100.00
2023-02-11T14:59:03.721Z,100.00
2023-02-11T15:01:35.351Z,100.00
2023-02-11T15:04:05.607Z,100.00
2023-02-11T15:06:37.165Z,100.00
2023-02-11T15:09:18.788Z,100.00
2023-02-11T15:11:52.381Z,100.00
2023-02-11T15:14:29.253Z,100.00
2023-02-11T15:17:04.505Z,100.00
2023-02-11T15:19:36.029Z,100.00
2023-02-11T15:22:06.772Z,100.00
2023-02-11T15:24:36.433Z,100.00
2023-02-11T15:27:12.794Z,100.00
2023-02-11T15:29:44.315Z,100.00
2023-02-11T15:32:18.345Z,100.00
2023-02-11T15:34:48.279Z,100.00
2023-02-11T15:37:21.018Z,100.00
2023-02-11T15:39:49.905Z,100.00
2023-02-11T15:42:20.340Z,100.00
2023-02-11T15:44:56.297Z,100.00
2023-02-11T15:47:30.790Z,100.00
2023-02-11T15:49:59.134Z,100.00
2023-02-11T15:52:29.362Z,100.00
2023-02-11T15:55:02.844Z,100.00
2023-02-11T15:57:31.505Z,100.00
2023-02-11T16:00:05.650Z,100.00
2023-02-11T16:02:45.235Z,100.00
2023-02-11T16:05:27.657Z,100.00
2023-02-11T16:07:57.190Z,100.00
2023-02-11T16:10:28.143Z,100.00
2023-02-11T16:13:03.289Z,100.00
2023-02-11T16:15:47.903Z,100.00
2023-02-11T16:18:37.868Z,100.00
2023-02-11T16:21:13.302Z,100.00
2023-02-11T16:23:43.116Z,100.00
2023-02-11T16:26:21.713Z,100.00
2023-02-11T16:28:50.524Z,100.00
2023-02-11T16:31:19.723Z,100.00
2023-02-11T16:33:51.925Z,100.00
2023-02-11T16:36:20.164Z,100.00
2023-02-11T16:38:48.200Z,100.00
2023-02-11T16:41:16.600Z,100.00
2023-02-11T16:43:44.638Z,100.00
2023-02-11T16:46:16.557Z,100.00
2023-02-11T16:48:47.105Z,100.00
2023-02-11T16:51:19.202Z,100.00
2023-02-11T16:53:47.351Z,100.00
2023-02-11T16:56:17.344Z,100.00
2023-02-11T16:58:46.322Z,100.00
2023-02-11T17:01:15.422Z,100.00
2023-02-11T17:03:43.840Z,100.00
2023-02-11T17:06:13.707Z,100.00
2023-02-11T17:08:43.125Z,100.00
2023-02-11T17:11:11.522Z,100.00
2023-02-11T17:13:41.573Z,100.00
2023-02-11T17:16:17.015Z,100.00
2023-02-11T17:18:47.787Z,100.00
2023-02-11T17:21:18.329Z,100.00
2023-02-11T17:23:47.763Z,100.00
2023-02-11T17:26:15.896Z,100.00
2023-02-11T17:28:44.019Z,100.00
2023-02-11T17:31:12.583Z,100.00
2023-02-11T17:33:41.219Z,100.00
2023-02-11T17:36:11.232Z,100.00
2023-02-11T17:38:39.454Z,100.00
2023-02-11T17:41:11.313Z,100.00
2023-02-11T17:43:39.956Z,100.00
2023-02-11T17:46:11.335Z,100.00
2023-02-11T17:48:40.055Z,100.00
2023-02-11T17:51:23.071Z,100.00
2023-02-11T17:53:51.213Z,100.00
2023-02-11T17:56:21.273Z,100.00
2023-02-11T17:58:49.425Z,100.00
2023-02-11T18:01:17.901Z,100.00
2023-02-11T18:03:46.237Z,100.00
2023-02-11T18:06:15.100Z,100.00
2023-02-11T18:08:45.588Z,100.00
2023-02-11T18:11:17.109Z,100.00
2023-02-11T18:13:54.231Z,100.00
2023-02-11T18:16:22.863Z,100.00
2023-02-11T18:18:51.822Z,100.00
2023-02-11T18:21:21.784Z,100.00
2023-02-11T18:23:50.871Z,100.00
2023-02-11T18:26:21.066Z,100.00
2023-02-11T18:28:53.482Z,100.00
2023-02-11T18:31:22.728Z,100.00
2023-02-11T18:33:53.229Z,100.00
2023-02-11T18:36:23.193Z,100.00
2023-02-11T18:38:53.824Z,100.00
2023-02-11T18:44:37.565Z,100.00
2023-02-11T18:47:05.822Z,100.00
2023-02-11T18:49:36.907Z,100.00
2023-02-11T18:52:06.096Z,100.00
2023-02-11T18:54:34.609Z,100.00
2023-02-11T18:57:05.034Z,100.00
2023-02-11T18:59:37.966Z,100.00
2023-02-11T19:02:06.027Z,100.00
2023-02-11T19:04:37.528Z,100.00
2023-02-11T19:07:10.821Z,100.00
2023-02-11T19:09:41.085Z,100.00
2023-02-11T19:12:09.867Z,100.00
2023-02-11T19:14:39.970Z,100.00
2023-02-11T19:17:10.822Z,100.00
2023-02-11T19:19:40.860Z,100.00
2023-02-11T19:22:10.666Z,100.00
2023-02-11T19:24:40.018Z,100.00
2023-02-11T19:27:10.967Z,100.00
2023-02-11T19:29:40.865Z,100.00
2023-02-11T19:32:09.069Z,100.00
2023-02-11T19:34:41.647Z,100.00
2023-02-11T19:37:13.564Z,100.00
2023-02-11T19:39:42.374Z,100.00
2023-02-11T19:42:11.089Z,100.00
2023-02-11T19:44:40.564Z,100.00
2023-02-11T19:47:12.648Z,100.00
2023-02-11T19:49:41.037Z,100.00
2023-02-11T19:52:12.238Z,100.00
2023-02-11T19:54:40.535Z,100.00
2023-02-11T19:57:08.608Z,100.00
2023-02-11T19:59:36.760Z,100.00
2023-02-11T20:02:10.252Z,100.00
2023-02-11T20:04:38.476Z,100.00
2023-02-11T20:07:07.141Z,100.00
2023-02-11T20:09:38.030Z,100.00
2023-02-11T20:12:06.496Z,100.00
2023-02-11T20:14:37.001Z,100.00
2023-02-11T20:17:08.643Z,100.00
2023-02-11T20:19:37.245Z,100.00
2023-02-11T20:22:05.399Z,100.00
2023-02-11T20:24:33.911Z,100.00
2023-02-11T20:27:02.102Z,100.00
2023-02-11T20:29:32.578Z,100.00
2023-02-11T20:32:00.818Z,100.00
2023-02-11T20:34:32.592Z,100.00
2023-02-11T20:37:04.066Z,100.00
2023-02-11T20:39:32.990Z,100.00
2023-02-11T20:42:01.106Z,100.00
2023-02-11T20:44:32.430Z,100.00
2023-02-11T20:47:00.573Z,100.00
2023-02-11T20:49:29.216Z,100.00
2023-02-11T20:51:59.267Z,100.00
2023-02-11T20:54:27.938Z,100.00
2023-02-11T20:56:57.009Z,100.00
2023-02-11T20:59:25.950Z,100.00
2023-02-11T21:01:57.045Z,100.00
2023-02-11T21:04:27.937Z,100.00
2023-02-11T21:06:59.176Z,100.00
2023-02-11T21:09:29.639Z,100.00
2023-02-11T21:11:58.106Z,100.00
2023-02-11T21:14:27.143Z,100.00
2023-02-11T21:16:55.701Z,100.00
2023-02-11T21:19:23.810Z,100.00
2023-02-11T21:21:52.532Z,100.00
2023-02-11T21:24:22.110Z,100.00
2023-02-11T21:26:52.628Z,100.00
2023-02-11T21:29:20.801Z,100.00
2023-02-11T21:31:49.703Z,100.00
2023-02-11T21:34:20.767Z,100.00
2023-02-11T21:36:51.223Z,100.00
2023-02-11T21:39:23.187Z,100.00
2023-02-11T21:41:51.658Z,100.00
2023-02-11T21:44:20.213Z,100.00
2023-02-11T21:46:48.501Z,100.00
2023-02-11T21:49:16.670Z,100.00
2023-02-11T21:51:45.026Z,100.00
2023-02-11T21:54:13.461Z,100.00
2023-02-11T21:56:43.036Z,100.00
2023-02-11T21:59:13.721Z,100.00
2023-02-11T22:01:42.308Z,100.00
2023-02-11T22:04:11.093Z,100.00
2023-02-11T22:06:40.000Z,100.00
2023-02-11T22:09:09.777Z,100.00
2023-02-11T22:11:38.710Z,100.00
2023-02-11T22:14:08.179Z,100.00
2023-02-11T22:16:36.388Z,100.00
2023-02-11T22:19:07.275Z,100.00
2023-02-11T22:21:35.582Z,100.00
2023-02-11T22:24:03.776Z,100.00
2023-02-11T22:26:32.602Z,100.00
2023-02-11T22:29:00.759Z,100.00
2023-02-11T22:31:32.850Z,100.00
2023-02-11T22:34:02.028Z,100.00
2023-02-11T22:36:32.239Z,100.00
2023-02-11T22:39:02.773Z,100.00
2023-02-11T22:41:31.281Z,100.00
2023-02-11T22:43:59.972Z,100.00
2023-02-11T22:46:31.941Z,100.00
2023-02-11T22:49:00.130Z,100.00
2023-02-11T22:51:30.973Z,100.00
2023-02-11T22:54:01.410Z,100.00
2023-02-11T22:56:31.225Z,100.00
2023-02-11T22:59:04.279Z,100.00
2023-02-11T23:01:34.218Z,100.00
2023-02-11T23:04:06.863Z,100.00
2023-02-11T23:06:35.514Z,100.00
2023-02-11T23:09:04.456Z,100.00
2023-02-11T23:11:32.928Z,100.00
2023-02-11T23:14:02.526Z,100.00
2023-02-11T23:16:32.391Z,100.00
2023-02-11T23:19:04.064Z,100.00
2023-02-11T23:21:34.035Z,100.00
2023-02-11T23:24:04.795Z,100.00
2023-02-11T23:26:38.977Z,100.00
2023-02-11T23:29:07.344Z,100.00
2023-02-11T23:31:39.805Z,100.00
2023-02-11T23:34:12.713Z,100.00
2023-02-11T23:36:40.800Z,100.00
2023-02-11T23:39:14.951Z,100.00
2023-02-11T23:41:43.172Z,100.00
2023-02-11T23:45:36.819Z,100.00
2023-02-11T23:48:05.184Z,100.00
2023-02-11T23:50:34.518Z,100.00
2023-02-11T23:53:02.722Z,100.00
2023-02-11T23:55:30.841Z,100.00
2023-02-11T23:57:59.618Z,100.00
